Quick Links (Output Below):   Max & Min Temps   /   Climate Reports   /   Zone Forecasts
River Forecasts   /   Forestry Forecasts   /   Aviation Forecasts   /   Radars   /   Features

Terminal Aerodrome Forecast (Hot Springs)

Pick a Site:
Arkadelphia | El Dorado | Fayetteville | Fort Smith | Harrison | Highfill | Hot Springs | Jonesboro
Little Rock | Monticello | Mountain Home | Pine Bluff | Texarkana
 Forecast 

KHOT 210741Z 2108/2206 00000KT 6SM BR SKC
      TEMPO 2108/2110 2SM BR BKN002
     FM211000 00000KT 3SM BR SCT005
      TEMPO 2110/2113 1/2SM FG VV001
     FM211400 08003KT P6SM SKC=


 Latest METARs (Observations) 
How to Decode METARs
09Z KHOT 210853Z AUTO 00000KT 6SM -RA BR OVC033 14/13 A3006 RMK AO2
         RAB04E30B36 SLP176 P0000 60000 T01390133 52001
         
08Z KHOT 210753Z AUTO 00000KT 1/4SM FG VV001 13/12 A3006 RMK AO2
         SLP177 T01280122
         
07Z KHOT 210653Z AUTO 00000KT 9SM CLR 12/11 A3006 RMK AO2 SLP177
         T01220111
         
06Z KHOT 210553Z AUTO 00000KT 7SM CLR 13/12 A3005 RMK AO2 SLP173
         T01330122 10183 20133 402060083 58003
         
05Z KHOT 210453Z AUTO 00000KT 3SM BR CLR 14/13 A3006 RMK AO2 SLP176
         T01390133
         
04Z KHOT 210353Z AUTO 00000KT 8SM CLR 14/13 A3006 RMK AO2 SLP177
         T01390133
         
03Z KHOT 210253Z AUTO 00000KT 9SM CLR 15/14 A3006 RMK AO2 SLP178
         T01500139 51006
         
02Z KHOT 210153Z AUTO 00000KT 10SM CLR 16/14 A3005 RMK AO2 SLP175
         T01560139
         
01Z KHOT 210053Z AUTO 00000KT 10SM CLR 16/14 A3005 RMK AO2 SLP175
         T01610144
         
00Z KHOT 202353Z AUTO 00000KT 10SM OVC037 18/14 A3004 RMK AO2 SLP171
         60000 T01830144 10206 20178 55002
         
***** Today's Observations (Above) *****


Back to Main Page
http://www.srh.noaa.gov/lzk/qfcst.php

USA.gov is the U.S. government's official web portal to all federal, state and local government web resources and services.